Time;durP1;ratioP1;P1;durP2;ratioP2;P2;SDS_P1;SDS_P2;PMS_P1;PMS_P2;Temp;Humidity;BMP_temperature;BMP_pressure;BME280_temperature;BME280_humidity;BME280_pressure;Samples;Min_cycle;Max_cycle;Signal;HPM_P1;HPM_P2
2022/03/06 00:00:53;;;;;;;14.93;10.80;;;;;;;-2.42;68.37;96956.68;1738497;82;21088;-83
2022/03/06 00:03:18;;;;;;;16.23;11.30;;;;;;;-2.45;68.49;96952.20;1718076;82;21368;-83
2022/03/06 00:05:44;;;;;;;15.65;10.82;;;;;;;-2.47;68.65;96949.74;1738710;82;20965;-84
2022/03/06 00:08:10;;;;;;;14.13;11.63;;;;;;;-2.49;68.84;96955.38;1738564;82;20978;-83
2022/03/06 00:10:36;;;;;;;14.00;11.57;;;;;;;-2.51;68.99;96958.47;1738645;82;21081;-84
2022/03/06 00:13:01;;;;;;;13.95;11.73;;;;;;;-2.52;69.09;96956.02;1738565;82;21429;-83
2022/03/06 00:15:27;;;;;;;12.60;11.22;;;;;;;-2.55;69.18;96960.01;1738766;82;20958;-83
2022/03/06 00:17:56;;;;;;;14.35;12.35;;;;;;;-2.58;69.32;96957.19;1738687;82;21051;-83
2022/03/06 00:20:22;;;;;;;14.35;11.90;;;;;;;-2.56;69.47;96960.91;1738751;82;20966;-83
2022/03/06 00:22:48;;;;;;;16.95;12.18;;;;;;;-2.57;69.66;96954.19;1738705;82;21396;-83
2022/03/06 00:25:13;;;;;;;16.57;12.73;;;;;;;-2.57;69.73;96951.19;1737724;81;20982;-83
2022/03/06 00:27:39;;;;;;;17.37;13.10;;;;;;;-2.55;69.87;96949.38;1712702;83;21341;-83
2022/03/06 00:30:07;;;;;;;17.30;12.25;;;;;;;-2.54;69.98;96945.92;1709304;83;21014;-83
2022/03/06 00:32:33;;;;;;;15.80;12.95;;;;;;;-2.53;70.04;96942.92;1709232;84;22130;-83
2022/03/06 00:34:59;;;;;;;17.23;13.28;;;;;;;-2.54;70.08;96945.92;1709285;84;21069;-83
2022/03/06 00:37:25;;;;;;;17.70;12.43;;;;;;;-2.53;70.22;96942.92;1709208;84;21092;-84
2022/03/06 00:39:50;;;;;;;18.62;13.15;;;;;;;-2.54;70.20;96938.74;1709308;83;21049;-83
2022/03/06 00:42:16;;;;;;;19.73;13.45;;;;;;;-2.55;70.23;96943.02;1709041;83;21452;-83
2022/03/06 00:44:42;;;;;;;17.25;12.25;;;;;;;-2.57;70.23;96941.47;1709277;84;21033;-84
2022/03/06 00:47:07;;;;;;;17.77;13.58;;;;;;;-2.60;70.19;96937.83;1709265;83;21041;-84
2022/03/06 00:49:33;;;;;;;18.10;13.88;;;;;;;-2.60;70.23;96946.73;1709318;83;21046;-83
2022/03/06 00:51:59;;;;;;;18.23;13.45;;;;;;;-2.61;70.06;96942.52;1687905;84;21497;-83
2022/03/06 00:54:25;;;;;;;17.90;12.25;;;;;;;-2.64;70.04;96938.44;1709262;84;21108;-84
2022/03/06 00:56:51;;;;;;;15.20;11.90;;;;;;;-2.65;70.05;96943.61;1709378;83;21046;-84
2022/03/06 00:59:17;;;;;;;15.65;12.40;;;;;;;-2.69;69.96;96937.88;1721469;83;21570;-83
2022/03/06 01:01:44;;;;;;;16.35;12.25;;;;;;;-2.72;69.88;96935.52;1722370;83;21060;-83
2022/03/06 01:04:09;;;;;;;18.42;13.18;;;;;;;-2.76;69.84;96939.16;1721769;83;21029;-83
2022/03/06 01:06:36;;;;;;;19.82;12.98;;;;;;;-2.81;69.74;96939.39;1722374;83;21044;-84
2022/03/06 01:09:03;;;;;;;15.78;11.73;;;;;;;-2.84;69.63;96938.75;1722137;83;21431;-83
2022/03/06 01:11:29;;;;;;;16.32;13.22;;;;;;;-2.88;69.55;96940.64;1722434;83;20989;-84
2022/03/06 01:13:55;;;;;;;17.30;12.98;;;;;;;-2.91;69.51;96931.11;1722226;83;21458;-83
2022/03/06 01:16:20;;;;;;;15.48;11.45;;;;;;;-2.94;69.53;96935.88;1722220;83;21063;-83
2022/03/06 01:18:46;;;;;;;16.62;12.58;;;;;;;-2.95;69.64;96935.97;1722436;83;21012;-83
2022/03/06 01:21:12;;;;;;;16.45;13.53;;;;;;;-2.95;69.75;96934.25;1722402;83;20941;-83
2022/03/06 01:23:38;;;;;;;21.07;13.25;;;;;;;-2.95;69.86;96930.89;1698753;80;21087;-83
2022/03/06 01:26:03;;;;;;;19.32;14.03;;;;;;;-2.95;69.92;96932.97;1751783;82;20989;-83
2022/03/06 01:28:30;;;;;;;18.70;13.03;;;;;;;-2.98;69.97;96928.06;1752080;82;21044;-83
2022/03/06 01:30:55;;;;;;;17.77;14.10;;;;;;;-2.98;70.12;96927.25;1751837;82;21256;-83
2022/03/06 01:33:21;;;;;;;16.02;12.05;;;;;;;-2.98;70.17;96928.06;1752242;82;21411;-83
2022/03/06 01:35:47;;;;;;;15.70;11.78;;;;;;;-2.94;70.53;96935.06;1752041;82;21276;-83
2022/03/06 01:38:13;;;;;;;16.40;12.28;;;;;;;-2.91;70.46;96929.38;1751763;82;21064;-83
2022/03/06 01:40:38;;;;;;;17.10;12.07;;;;;;;-2.89;70.71;96932.66;1751945;82;21028;-83
2022/03/06 01:43:04;;;;;;;16.23;11.65;;;;;;;-2.85;70.83;96929.48;1752177;81;21415;-83
2022/03/06 01:45:30;;;;;;;15.05;11.30;;;;;;;-2.82;70.89;96930.13;1751886;82;21056;-83
2022/03/06 01:47:56;;;;;;;16.05;11.88;;;;;;;-2.80;71.09;96930.84;1752061;82;21100;-82
2022/03/06 01:50:27;;;;;;;17.05;12.75;;;;;;;-2.75;71.14;96931.89;1751947;82;21037;-83
2022/03/06 01:52:55;;;;;;;16.95;12.10;;;;;;;-2.70;71.23;96927.80;1752140;82;21399;-83
2022/03/06 01:55:26;;;;;;;16.93;12.98;;;;;;;-2.61;71.59;96924.27;1751968;82;21036;-83
2022/03/06 01:57:49;;;;;;;17.67;12.28;;;;;;;-2.54;71.72;96923.02;1750263;82;21060;-83
2022/03/06 02:00:20;;;;;;;17.20;12.23;;;;;;;-2.50;71.59;96921.93;1751998;82;21392;-83
2022/03/06 02:02:46;;;;;;;14.33;11.50;;;;;;;-2.42;71.48;96922.78;1750552;82;21152;-83
2022/03/06 02:05:12;;;;;;;16.80;11.48;;;;;;;-2.37;71.28;96915.69;1751427;82;21412;-83
2022/03/06 02:07:38;;;;;;;17.42;11.38;;;;;;;-2.30;71.09;96917.41;1751855;82;21080;-83
2022/03/06 02:10:05;;;;;;;17.67;12.18;;;;;;;-2.26;71.16;96921.44;1751723;82;21061;-83
2022/03/06 02:12:31;;;;;;;14.73;11.20;;;;;;;-2.18;71.41;96929.42;1752177;82;21021;-83
2022/03/06 02:14:59;;;;;;;14.58;11.28;;;;;;;-2.13;71.26;96927.42;1752018;82;20969;-84
2022/03/06 02:17:26;;;;;;;15.18;11.10;;;;;;;-2.08;71.05;96924.17;1752219;82;20977;-83
2022/03/06 02:19:59;;;;;;;14.15;11.00;;;;;;;-2.05;71.04;96921.44;1726647;82;20985;-84
2022/03/06 02:22:29;;;;;;;17.42;11.57;;;;;;;-2.04;70.71;96912.06;1752037;82;21322;-83
2022/03/06 02:24:55;;;;;;;17.15;11.63;;;;;;;-2.04;70.35;96917.98;1750331;80;21080;-83
2022/03/06 02:27:21;;;;;;;15.48;11.28;;;;;;;-1.98;70.49;96912.97;1751817;82;21179;-83
2022/03/06 02:29:47;;;;;;;13.32;10.93;;;;;;;-1.96;70.88;96912.41;1752167;82;21376;-84
2022/03/06 02:32:16;;;;;;;14.03;11.55;;;;;;;-1.98;70.32;96909.14;1751940;82;21077;-83
2022/03/06 02:34:45;;;;;;;15.60;10.43;;;;;;;-1.97;70.77;96906.95;1752207;81;21091;-83
2022/03/06 02:37:11;;;;;;;17.07;11.60;;;;;;;-1.92;70.96;96901.97;1752218;82;21029;-83
2022/03/06 02:39:37;;;;;;;18.27;13.90;;;;;;;-1.89;70.86;96904.33;1752345;82;21081;-83
2022/03/06 02:42:04;;;;;;;23.25;16.97;;;;;;;-1.94;70.79;96906.34;1751851;82;21123;-83
2022/03/06 02:44:30;;;;;;;24.60;17.42;;;;;;;-1.93;71.11;96899.06;1752312;82;21005;-83
2022/03/06 02:46:55;;;;;;;22.65;16.17;;;;;;;-1.89;71.25;96897.97;1752318;82;21024;-83
2022/03/06 02:49:21;;;;;;;22.15;15.83;;;;;;;-1.82;71.50;96897.94;1752201;82;21052;-83
2022/03/06 02:51:47;;;;;;;25.17;17.55;;;;;;;-1.78;71.47;96903.69;1751950;82;21041;-84
2022/03/06 02:54:14;;;;;;;25.10;17.77;;;;;;;-1.75;71.29;96903.50;1752208;81;21028;-83
2022/03/06 02:56:40;;;;;;;22.80;16.07;;;;;;;-1.71;71.35;96900.30;1752222;82;20973;-83
2022/03/06 02:59:07;;;;;;;21.48;14.87;;;;;;;-1.69;71.13;96903.12;1752110;82;21119;-83
2022/03/06 03:01:39;;;;;;;28.00;18.98;;;;;;;-1.68;71.25;96896.29;1752295;82;21411;-84
2022/03/06 03:04:00;;;;;;;30.32;19.67;;;;;;;-1.66;71.10;96894.00;1751418;82;21028;-83
2022/03/06 03:06:27;;;;;;;30.70;21.40;;;;;;;-1.62;71.16;96895.48;1727178;82;21407;-83
2022/03/06 03:08:52;;;;;;;35.10;24.77;;;;;;;-1.63;71.27;96901.91;1752295;82;21032;-83
2022/03/06 03:11:18;;;;;;;36.80;23.77;;;;;;;-1.68;71.36;96897.56;1752282;81;21032;-83
2022/03/06 03:13:44;;;;;;;36.25;23.73;;;;;;;-1.67;71.42;96897.92;1752207;81;21320;-83
2022/03/06 03:16:09;;;;;;;33.75;23.02;;;;;;;-1.68;71.39;96899.66;1727086;82;20946;-83
2022/03/06 03:18:35;;;;;;;38.15;25.90;;;;;;;-1.65;71.71;96898.64;1752241;81;20985;-83
2022/03/06 03:21:01;;;;;;;26.42;15.60;;;;;;;-1.63;71.99;96905.31;1751891;82;20997;-83
2022/03/06 03:23:28;;;;;;;24.37;18.23;;;;;;;-1.61;71.90;96903.94;1751772;82;21362;-83
2022/03/06 03:25:54;;;;;;;30.88;20.52;;;;;;;-1.58;71.96;96903.75;1752100;82;20989;-83
2022/03/06 03:28:20;;;;;;;42.65;27.90;;;;;;;-1.54;71.88;96900.09;1752273;81;21001;-83
2022/03/06 03:30:46;;;;;;;41.63;25.37;;;;;;;-1.52;72.09;96904.63;1752489;81;21005;-83
2022/03/06 03:33:12;;;;;;;45.00;30.43;;;;;;;-1.56;72.25;96907.83;1752260;82;21053;-83
2022/03/06 03:35:37;;;;;;;47.45;29.95;;;;;;;-1.56;72.61;96908.28;1751685;82;21092;-83
2022/03/06 03:38:04;;;;;;;48.10;32.35;;;;;;;-1.56;72.77;96910.84;1752446;82;21061;-84
2022/03/06 03:40:30;;;;;;;54.38;33.92;;;;;;;-1.53;73.09;96919.10;1752330;82;21049;-83
2022/03/06 03:42:55;;;;;;;46.92;32.80;;;;;;;-1.51;73.12;96920.28;1752576;81;21056;-83
2022/03/06 03:45:21;;;;;;;48.65;31.62;;;;;;;-1.51;73.29;96912.63;1752127;82;21392;-83
2022/03/06 03:47:47;;;;;;;48.73;31.95;;;;;;;-1.48;73.31;96912.44;1752100;82;20997;-83
2022/03/06 03:50:13;;;;;;;51.42;33.73;;;;;;;-1.45;73.35;96916.09;1751702;82;22063;-83
2022/03/06 03:52:38;;;;;;;54.67;33.98;;;;;;;-1.45;73.62;96923.75;1752126;82;20992;-83
2022/03/06 03:55:05;;;;;;;51.63;32.95;;;;;;;-1.41;73.65;96917.53;1751846;81;21011;-83
2022/03/06 03:57:30;;;;;;;54.93;34.55;;;;;;;-1.37;73.68;96918.16;1752189;82;21008;-83
2022/03/06 03:59:56;;;;;;;56.45;36.53;;;;;;;-1.39;73.67;96920.80;1740924;82;21013;-83
2022/03/06 04:02:22;;;;;;;54.48;34.70;;;;;;;-1.41;73.68;96922.64;1738632;82;21009;-83
2022/03/06 04:04:49;;;;;;;56.75;38.15;;;;;;;-1.41;73.83;96927.73;1738592;82;21013;-83
2022/03/06 04:07:15;;;;;;;56.95;35.80;;;;;;;-1.40;73.84;96929.37;1738617;82;21126;-83
2022/03/06 04:09:41;;;;;;;57.38;36.53;;;;;;;-1.40;73.89;96925.55;1738685;82;21089;-83
2022/03/06 04:12:08;;;;;;;55.40;36.00;;;;;;;-1.38;73.94;96924.99;1738810;82;21056;-83
2022/03/06 04:14:34;;;;;;;56.68;36.20;;;;;;;-1.34;73.95;96922.61;1738634;82;20966;-83
2022/03/06 04:17:00;;;;;;;51.37;34.95;;;;;;;-1.32;73.87;96922.51;1738697;82;21001;-83
2022/03/06 04:19:26;;;;;;;57.03;35.15;;;;;;;-1.30;73.93;96927.08;1717646;82;21384;-83
2022/03/06 04:21:52;;;;;;;55.12;35.38;;;;;;;-1.34;73.94;96931.53;1737771;81;20935;-83
2022/03/06 04:24:18;;;;;;;56.28;37.08;;;;;;;-1.39;74.11;96929.73;1738505;82;21021;-83
2022/03/06 04:26:44;;;;;;;55.00;34.18;;;;;;;-1.35;74.25;96925.25;1738589;82;21376;-83
2022/03/06 04:29:10;;;;;;;59.98;36.30;;;;;;;-1.33;74.30;96926.79;1738192;82;21033;-83
2022/03/06 04:31:36;;;;;;;55.75;37.13;;;;;;;-1.32;74.23;96922.51;1738415;82;21382;-83
2022/03/06 04:34:02;;;;;;;56.50;36.08;;;;;;;-1.36;74.31;96925.71;1738526;82;21404;-83
2022/03/06 04:36:27;;;;;;;57.98;37.58;;;;;;;-1.38;74.25;96926.72;1738535;82;21020;-83
2022/03/06 04:38:53;;;;;;;54.85;35.78;;;;;;;-1.39;74.20;96927.64;1738563;82;21102;-83
2022/03/06 04:41:19;;;;;;;51.83;34.23;;;;;;;-1.40;74.10;96933.19;1738576;82;21037;-83
2022/03/06 04:43:44;;;;;;;57.23;35.50;;;;;;;-1.39;74.33;96930.19;1738581;82;21423;-83
2022/03/06 04:46:10;;;;;;;60.00;36.98;;;;;;;-1.41;74.31;96929.01;1738487;82;21005;-83
2022/03/06 04:48:36;;;;;;;55.98;35.20;;;;;;;-1.43;74.45;96924.47;1738391;82;21048;-83
2022/03/06 04:51:02;;;;;;;48.90;31.33;;;;;;;-1.39;74.51;96925.09;1738418;82;20938;-83
2022/03/06 04:53:28;;;;;;;51.92;35.17;;;;;;;-1.39;74.00;96924.63;1738525;82;21349;-83
2022/03/06 04:55:54;;;;;;;59.35;36.50;;;;;;;-1.36;74.18;96920.61;1738376;82;21005;-83
2022/03/06 04:58:20;;;;;;;57.23;37.10;;;;;;;-1.33;74.43;96924.23;1738361;82;20974;-83
2022/03/06 05:00:46;;;;;;;60.73;38.65;;;;;;;-1.29;74.45;96923.16;1717700;82;20981;-83
2022/03/06 05:03:11;;;;;;;54.95;36.88;;;;;;;-1.29;74.43;96921.06;1738808;82;21017;-83
2022/03/06 05:05:37;;;;;;;57.55;36.38;;;;;;;-1.30;74.30;96923.26;1738470;82;21493;-83
2022/03/06 05:08:03;;;;;;;55.67;35.60;;;;;;;-1.31;74.21;96928.78;1738460;82;21036;-83
2022/03/06 05:10:29;;;;;;;60.80;40.15;;;;;;;-1.33;74.27;96922.97;1738385;82;21420;-83
2022/03/06 05:12:55;;;;;;;66.25;40.65;;;;;;;-1.39;74.44;96922.54;1738545;82;20997;-83
2022/03/06 05:15:20;;;;;;;62.17;40.85;;;;;;;-1.48;74.52;96917.99;1738710;82;20969;-83
2022/03/06 05:17:47;;;;;;;62.45;37.93;;;;;;;-1.47;74.67;96927.27;1738168;82;21077;-83
2022/03/06 05:20:12;;;;;;;63.42;40.63;;;;;;;-1.51;74.81;96922.83;1737960;81;20999;-83
2022/03/06 05:22:39;;;;;;;58.48;38.95;;;;;;;-1.51;74.93;96922.83;1721609;82;21376;-83
2022/03/06 05:25:07;;;;;;;61.60;41.18;;;;;;;-1.55;75.00;96920.11;1738458;82;21029;-83
2022/03/06 05:27:33;;;;;;;62.70;40.15;;;;;;;-1.55;75.11;96923.94;1738503;82;21016;-83
2022/03/06 05:29:59;;;;;;;67.65;41.77;;;;;;;-1.53;75.12;96927.20;1738658;82;20997;-83
2022/03/06 05:32:24;;;;;;;64.05;40.15;;;;;;;-1.52;75.22;96924.56;1738377;82;21409;-83
2022/03/06 05:34:50;;;;;;;61.42;39.00;;;;;;;-1.54;75.24;96923.84;1738468;82;21006;-83
2022/03/06 05:37:16;;;;;;;59.65;36.15;;;;;;;-1.49;75.21;96927.38;1738403;82;21006;-83
2022/03/06 05:39:42;;;;;;;57.20;39.60;;;;;;;-1.53;75.26;96932.30;1738682;82;21017;-83
2022/03/06 05:42:08;;;;;;;60.98;38.58;;;;;;;-1.60;74.90;96926.77;1738640;82;21356;-83
2022/03/06 05:44:34;;;;;;;65.08;40.48;;;;;;;-1.55;74.86;96925.21;1738478;82;21060;-83
2022/03/06 05:46:59;;;;;;;64.27;42.10;;;;;;;-1.51;75.01;96927.92;1738481;82;21065;-83
2022/03/06 05:49:25;;;;;;;66.53;42.13;;;;;;;-1.48;75.07;96925.64;1738525;82;21001;-83
2022/03/06 05:51:51;;;;;;;66.60;41.92;;;;;;;-1.48;75.26;96923.09;1738743;82;21352;-83
2022/03/06 05:54:17;;;;;;;52.80;32.25;;;;;;;-1.45;75.20;96921.66;1738128;82;21120;-83
2022/03/06 05:56:43;;;;;;;51.75;34.40;;;;;;;-1.47;74.40;96917.89;1738601;82;20958;-83
2022/03/06 05:59:08;;;;;;;57.08;35.35;;;;;;;-1.54;74.32;96925.11;1742961;82;21020;-83
2022/03/06 06:01:34;;;;;;;51.33;33.38;;;;;;;-1.57;74.01;96923.22;1751978;81;20985;-83
2022/03/06 06:04:00;;;;;;;50.80;33.67;;;;;;;-1.56;74.20;96919.30;1752001;81;20973;-83
2022/03/06 06:06:26;;;;;;;47.10;28.85;;;;;;;-1.53;74.39;96925.48;1751707;82;20938;-83
2022/03/06 06:08:52;;;;;;;44.83;28.40;;;;;;;-1.48;74.20;96925.64;1751269;82;21044;-83
2022/03/06 06:11:18;;;;;;;23.25;16.42;;;;;;;-1.48;73.85;96930.73;1727393;82;21020;-83
2022/03/06 06:13:44;;;;;;;23.95;16.37;;;;;;;-1.49;72.34;96932.47;1751980;82;20981;-83
2022/03/06 06:16:10;;;;;;;22.87;15.95;;;;;;;-1.53;71.50;96933.58;1752020;82;21032;-84
2022/03/06 06:18:36;;;;;;;19.80;13.45;;;;;;;-1.52;71.40;96939.85;1751968;82;21048;-83
2022/03/06 06:21:02;;;;;;;19.32;12.70;;;;;;;-1.51;70.51;96939.39;1752007;82;21005;-84
2022/03/06 06:23:28;;;;;;;20.40;14.63;;;;;;;-1.50;70.20;96933.39;1752123;82;20993;-84
2022/03/06 06:25:54;;;;;;;14.53;11.40;;;;;;;-1.46;70.16;96936.59;1751533;82;21044;-83
2022/03/06 06:28:19;;;;;;;18.15;12.53;;;;;;;-1.45;69.17;96940.31;1752034;82;21000;-83
2022/03/06 06:30:45;;;;;;;22.32;13.65;;;;;;;-1.41;69.73;96944.30;1751945;81;21356;-83
2022/03/06 06:33:12;;;;;;;22.02;14.03;;;;;;;-1.34;69.69;96948.55;1752048;82;20961;-83
2022/03/06 06:35:38;;;;;;;18.87;12.80;;;;;;;-1.32;69.12;96944.99;1752064;82;21033;-83
2022/03/06 06:38:04;;;;;;;18.85;13.30;;;;;;;-1.30;69.25;96946.20;1751859;82;21336;-83
2022/03/06 06:40:30;;;;;;;18.48;13.50;;;;;;;-1.29;68.97;96947.84;1751877;82;21029;-83
2022/03/06 06:42:56;;;;;;;23.22;14.78;;;;;;;-1.27;68.82;96949.83;1751921;81;20981;-83
2022/03/06 06:45:22;;;;;;;18.90;13.13;;;;;;;-1.23;68.95;96951.27;1751939;82;21395;-83
2022/03/06 06:47:47;;;;;;;17.92;12.35;;;;;;;-1.18;68.70;96950.98;1751826;82;21005;-84
2022/03/06 06:50:13;;;;;;;16.27;11.70;;;;;;;-1.15;67.46;96949.50;1752041;82;21001;-83
2022/03/06 06:52:39;;;;;;;20.35;14.07;;;;;;;-1.16;67.74;96952.52;1751954;82;20993;-84
2022/03/06 06:55:06;;;;;;;19.20;12.50;;;;;;;-1.18;67.76;96952.25;1751623;82;21053;-84
2022/03/06 06:57:32;;;;;;;19.92;13.75;;;;;;;-1.20;67.39;96957.45;1752058;82;20970;-84
2022/03/06 06:59:58;;;;;;;17.45;13.50;;;;;;;-1.21;67.30;96955.36;1751750;82;21077;-83
2022/03/06 07:02:24;;;;;;;15.83;12.68;;;;;;;-1.18;67.15;96955.62;1751893;82;20999;-83
2022/03/06 07:04:50;;;;;;;17.87;13.10;;;;;;;-1.18;67.06;96956.89;1751837;82;21021;-83
2022/03/06 07:07:16;;;;;;;18.80;13.65;;;;;;;-1.14;67.52;96957.09;1751871;82;21383;-83
2022/03/06 07:09:41;;;;;;;16.65;11.83;;;;;;;-1.10;67.16;96951.33;1751858;82;20985;-83
2022/03/06 07:12:08;;;;;;;16.95;12.93;;;;;;;-1.06;67.01;96954.86;1751885;82;21001;-83
2022/03/06 07:14:34;;;;;;;16.00;12.43;;;;;;;-1.06;66.40;96952.77;1751857;82;20985;-83
2022/03/06 07:17:00;;;;;;;13.38;11.38;;;;;;;-1.06;66.38;96945.12;1751984;81;22137;-83
2022/03/06 07:19:25;;;;;;;18.12;12.37;;;;;;;-1.05;66.13;96951.39;1751883;82;20965;-83
2022/03/06 07:21:51;;;;;;;15.43;11.28;;;;;;;-1.06;65.63;96952.77;1752412;82;20974;-83
2022/03/06 07:24:17;;;;;;;17.12;12.58;;;;;;;-1.07;65.53;96948.59;1748992;80;20973;-84
2022/03/06 07:26:43;;;;;;;13.65;11.50;;;;;;;-1.08;66.08;96952.05;1751384;82;20988;-83
2022/03/06 07:29:08;;;;;;;18.82;12.58;;;;;;;-1.02;66.10;96949.92;1751983;81;20981;-83
2022/03/06 07:31:34;;;;;;;19.05;13.65;;;;;;;-0.96;65.90;96956.39;1752177;81;21280;-84
2022/03/06 07:34:00;;;;;;;22.15;14.63;;;;;;;-0.90;65.95;96953.44;1752024;82;21375;-84
2022/03/06 07:36:26;;;;;;;21.55;12.50;;;;;;;-0.91;65.85;96955.63;1751944;82;21005;-83
2022/03/06 07:38:52;;;;;;;14.98;11.08;;;;;;;-0.89;65.46;96951.25;1751865;82;21045;-83
2022/03/06 07:41:18;;;;;;;13.75;9.53;;;;;;;-0.87;64.54;96948.59;1752103;82;21024;-83
2022/03/06 07:43:44;;;;;;;13.28;10.00;;;;;;;-0.93;63.95;96945.98;1752039;82;21391;-83
2022/03/06 07:46:10;;;;;;;14.23;9.60;;;;;;;-0.88;64.89;96950.79;1726592;82;20996;-83
2022/03/06 07:48:36;;;;;;;12.88;10.10;;;;;;;-0.80;65.02;96947.30;1752062;82;21080;-83
2022/03/06 07:51:02;;;;;;;13.35;9.75;;;;;;;-0.76;64.37;96944.91;1752088;82;21037;-83
2022/03/06 07:53:28;;;;;;;11.35;9.65;;;;;;;-0.75;64.50;96946.55;1751983;82;21064;-83
2022/03/06 07:55:53;;;;;;;9.68;7.78;;;;;;;-0.69;64.62;96943.59;1751703;82;21131;-83
2022/03/06 07:58:19;;;;;;;14.60;10.48;;;;;;;-0.67;62.76;96943.84;1751857;82;20965;-83
2022/03/06 08:00:45;;;;;;;14.93;11.60;;;;;;;-0.69;64.02;96944.41;1752036;81;21456;-84
2022/03/06 08:03:10;;;;;;;25.35;17.27;;;;;;;-0.67;64.53;96939.20;1751883;82;21054;-83
2022/03/06 08:05:37;;;;;;;31.40;20.90;;;;;;;-0.68;65.43;96942.21;1751609;82;21005;-83
2022/03/06 08:08:04;;;;;;;28.20;20.37;;;;;;;-0.76;66.00;96949.55;1702914;82;21041;-83
2022/03/06 08:10:29;;;;;;;31.35;20.90;;;;;;;-0.80;66.11;96945.58;1751925;82;21344;-83
2022/03/06 08:12:55;;;;;;;33.15;23.10;;;;;;;-0.85;66.58;96945.03;1751948;82;21024;-83
2022/03/06 08:15:21;;;;;;;30.48;20.57;;;;;;;-0.79;67.03;96945.11;1751870;82;21001;-83
2022/03/06 08:17:46;;;;;;;29.67;20.62;;;;;;;-0.82;66.85;96938.91;1752175;81;20969;-83
2022/03/06 08:20:12;;;;;;;29.65;21.68;;;;;;;-0.83;67.42;96945.74;1751547;82;21394;-83
2022/03/06 08:22:38;;;;;;;36.83;25.35;;;;;;;-0.83;67.61;96943.19;1752146;82;20985;-83
2022/03/06 08:25:05;;;;;;;25.15;15.80;;;;;;;-0.85;67.78;96946.30;1750526;80;21041;-84
2022/03/06 08:27:32;;;;;;;30.55;21.25;;;;;;;-0.87;67.73;96940.94;1735088;82;21352;-83
2022/03/06 08:29:59;;;;;;;28.70;20.17;;;;;;;-0.95;67.47;96949.09;1751972;82;21017;-83
2022/03/06 08:32:24;;;;;;;33.50;23.65;;;;;;;-0.94;67.82;96942.62;1752075;82;21356;-83
2022/03/06 08:34:53;;;;;;;31.17;22.32;;;;;;;-0.95;67.71;96944.81;1752176;82;20981;-83
2022/03/06 08:37:19;;;;;;;26.07;16.40;;;;;;;-0.91;67.86;96946.70;1751797;82;21053;-83
2022/03/06 08:39:47;;;;;;;26.30;18.23;;;;;;;-0.85;67.83;96936.55;1752057;82;21012;-83
2022/03/06 08:42:13;;;;;;;31.93;20.10;;;;;;;-0.92;67.57;96936.14;1726737;82;20996;-83
2022/03/06 08:44:39;;;;;;;32.73;21.48;;;;;;;-0.95;67.80;96937.61;1752376;82;21052;-83
2022/03/06 08:47:05;;;;;;;30.57;20.35;;;;;;;-0.90;68.23;96940.69;1751889;82;21139;-83
2022/03/06 08:49:31;;;;;;;22.82;16.52;;;;;;;-0.86;67.70;96945.95;1752198;82;20989;-83
2022/03/06 08:51:57;;;;;;;32.45;20.82;;;;;;;-0.88;67.52;96937.58;1751861;82;21159;-83
2022/03/06 08:54:23;;;;;;;32.85;22.10;;;;;;;-0.94;67.59;96936.23;1751604;82;21088;-83
2022/03/06 08:56:49;;;;;;;28.80;20.15;;;;;;;-0.99;67.82;96933.14;1751876;82;21044;-83
2022/03/06 08:59:15;;;;;;;26.10;19.92;;;;;;;-1.03;67.69;96939.36;1751890;82;21395;-83
2022/03/06 09:01:40;;;;;;;32.38;21.77;;;;;;;-0.98;68.16;96934.81;1752091;82;21005;-83
2022/03/06 09:04:06;;;;;;;31.42;22.07;;;;;;;-0.95;68.03;96935.88;1752184;82;20996;-84
2022/03/06 09:06:32;;;;;;;28.75;19.55;;;;;;;-0.90;68.18;96931.75;1752125;82;21028;-83
2022/03/06 09:08:57;;;;;;;29.82;20.75;;;;;;;-0.88;67.99;96938.84;1752001;82;21387;-83
2022/03/06 09:11:23;;;;;;;25.30;17.82;;;;;;;-0.84;68.02;96944.57;1752058;81;20957;-83
2022/03/06 09:13:49;;;;;;;21.77;15.05;;;;;;;-0.83;67.67;96941.92;1751933;81;20969;-84
2022/03/06 09:16:15;;;;;;;23.42;18.35;;;;;;;-0.81;67.42;96939.30;1751940;82;20981;-83
2022/03/06 09:18:40;;;;;;;23.12;16.50;;;;;;;-0.78;67.57;96938.63;1752082;82;20989;-84
2022/03/06 09:21:06;;;;;;;21.37;14.98;;;;;;;-0.82;66.88;96938.45;1751964;82;21028;-83
2022/03/06 09:23:32;;;;;;;23.27;15.48;;;;;;;-0.87;66.28;96943.03;1751984;82;20977;-83
2022/03/06 09:25:57;;;;;;;21.70;14.58;;;;;;;-0.91;66.49;96938.59;1751174;80;21434;-83
2022/03/06 09:28:23;;;;;;;21.85;14.40;;;;;;;-0.89;66.82;96941.50;1720315;83;20993;-83
2022/03/06 09:30:49;;;;;;;23.07;15.63;;;;;;;-0.87;66.77;96940.48;1722237;83;21029;-83
2022/03/06 09:33:14;;;;;;;23.30;16.32;;;;;;;-0.85;67.15;96945.03;1722282;83;21032;-83
2022/03/06 09:35:42;;;;;;;25.75;16.42;;;;;;;-0.87;67.00;96943.03;1722253;83;21024;-84
2022/03/06 09:38:07;;;;;;;24.32;16.93;;;;;;;-0.83;66.88;96943.65;1722306;83;21024;-84
2022/03/06 09:40:33;;;;;;;19.50;12.50;;;;;;;-0.86;66.25;96940.02;1698061;83;20992;-84
2022/03/06 09:42:59;;;;;;;21.05;15.38;;;;;;;-0.94;65.99;96937.52;1722190;83;21387;-83
2022/03/06 09:45:24;;;;;;;22.55;14.83;;;;;;;-1.01;66.41;96938.80;1674869;83;20961;-83
2022/03/06 09:47:52;;;;;;;22.10;15.40;;;;;;;-0.98;66.67;96946.72;1696432;83;21064;-83
2022/03/06 09:50:18;;;;;;;24.30;17.02;;;;;;;-0.98;66.83;96936.52;1721958;83;21064;-83
2022/03/06 09:52:44;;;;;;;20.70;14.38;;;;;;;-0.95;66.50;96933.33;1722335;83;21048;-84
2022/03/06 09:55:10;;;;;;;20.80;14.63;;;;;;;-0.91;66.54;96935.22;1722122;83;21399;-83
2022/03/06 09:57:36;;;;;;;19.48;14.07;;;;;;;-0.88;66.59;96935.02;1722255;83;21012;-83
2022/03/06 10:00:06;;;;;;;18.50;14.95;;;;;;;-0.87;65.85;96932.02;1718970;83;21018;-83
2022/03/06 10:02:31;;;;;;;22.58;15.32;;;;;;;-0.87;65.87;96936.66;1709258;84;21010;-84
2022/03/06 10:04:57;;;;;;;21.68;14.65;;;;;;;-0.85;66.44;96936.09;1709069;84;21031;-83
2022/03/06 10:07:23;;;;;;;17.45;12.53;;;;;;;-0.76;66.58;96937.25;1708884;84;21017;-84
2022/03/06 10:10:00;;;;;;;18.35;14.60;;;;;;;-0.74;65.87;96936.23;1664875;84;20998;-83
2022/03/06 10:12:30;;;;;;;19.27;14.15;;;;;;;-0.73;65.71;96933.23;1709089;84;21042;-84
2022/03/06 10:15:05;;;;;;;20.95;15.68;;;;;;;-0.68;65.84;96936.30;1709202;84;21009;-84
2022/03/06 10:17:32;;;;;;;18.82;14.33;;;;;;;-0.65;65.76;96942.50;1709191;83;21085;-83
2022/03/06 10:20:12;;;;;;;19.75;13.80;;;;;;;-0.65;65.20;96939.95;1708906;84;21069;-83
2022/03/06 10:22:46;;;;;;;15.13;13.00;;;;;;;-0.63;65.39;96941.94;1709048;84;20981;-84
2022/03/06 10:25:16;;;;;;;15.88;11.48;;;;;;;-0.60;64.57;96939.19;1709063;83;20934;-83
2022/03/06 10:27:54;;;;;;;19.00;12.58;;;;;;;-0.62;64.62;96939.74;1708994;84;21018;-84
2022/03/06 10:30:37;;;;;;;22.13;15.10;;;;;;;-0.68;65.07;96942.21;1709107;83;21108;-83
2022/03/06 10:33:07;;;;;;;21.68;14.50;;;;;;;-0.71;64.84;96939.05;1709096;83;21009;-84
2022/03/06 10:35:41;;;;;;;19.90;13.40;;;;;;;-0.69;64.88;96939.77;1709085;83;20973;-83
2022/03/06 10:38:29;;;;;;;15.88;12.78;;;;;;;-0.65;64.96;96934.39;1709081;84;21456;-83
2022/03/06 10:41:11;;;;;;;20.35;13.13;;;;;;;-0.58;64.76;96925.86;1709262;84;21048;-83
2022/03/06 10:43:37;;;;;;;;;;;;;;;-0.47;65.01;96926.45;1728386;81;21053;-83
2022/03/06 10:46:13;;;;;;;16.32;12.03;;;;;;;-0.51;64.40;96929.63;1738555;82;20479;-84
2022/03/06 10:48:40;;;;;;;14.63;12.05;;;;;;;-0.51;64.67;96924.98;1738441;82;21025;-83
2022/03/06 10:51:10;;;;;;;18.12;12.20;;;;;;;-0.48;64.28;96928.64;1738674;82;20985;-83
2022/03/06 10:53:35;;;;;;;14.65;10.45;;;;;;;-0.51;64.20;96923.71;1738496;82;20997;-84
2022/03/06 10:56:14;;;;;;;13.45;8.85;;;;;;;-0.54;63.21;96922.18;1738481;82;21045;-83
2022/03/06 10:58:43;;;;;;;12.28;10.40;;;;;;;-0.58;62.17;96922.48;1738296;82;20970;-83
2022/03/06 11:01:09;;;;;;;14.13;10.38;;;;;;;-0.66;63.00;96921.23;1725178;81;20993;-83
2022/03/06 11:03:35;;;;;;;15.90;10.88;;;;;;;-0.67;63.11;96922.61;1746951;82;20983;-83
2022/03/06 11:06:03;;;;;;;14.05;11.35;;;;;;;-0.65;63.32;96919.07;1746888;82;20989;-83
2022/03/06 11:08:30;;;;;;;18.23;11.97;;;;;;;-0.54;64.34;96916.26;1746230;82;21044;-83
2022/03/06 11:10:56;;;;;;;20.50;12.75;;;;;;;-0.52;63.65;96919.06;1746927;81;21045;-83
2022/03/06 11:13:21;;;;;;;18.60;11.85;;;;;;;-0.51;63.38;96916.05;1747208;82;21364;-83